W-star — A8UX7 — position and weather

sailwx.info

Track history (hours):
 
Tides and Currents Weather Stations Pressure Air Temp Water Temp Dewpoint Dewpoint Depression Visibility Wind Speed Wind Dir Waves Ship Positions

W-star

Last reported at 2017-Sep-28 14:43 UTC. Time now 2017-Oct-20 08:54 UTC.
Position N 48°31' W 127°17'.
Warning: this ship's position is 21 days out of date.

Length 230 m; draft 14.7 m.

Type: Cargo ship. MMSI: 636014569.

Date/timePositionNaut miles runAvg speedWind from/ knotsBaromVisibWave heightAir tempDewpointWater temp
2017-Sep-28 14:43N 48°31' W 127°17'4 9.8
2017-Sep-28 14:21N 48°31' W 127°11'3 9.7
2017-Sep-28 14:00N 48°30' W 127°06'5 9.8
2017-Sep-28 13:30N 48°30' W 126°59'5 9.9
2017-Sep-28 13:00N 48°30' W 126°51'5 9.8
2017-Sep-28 12:30N 48°30' W 126°44'5 9.8
2017-Sep-28 12:00N 48°31' W 126°37'5 9.6
2017-Sep-28 11:30N 48°31' W 126°29'5 9.4
2017-Sep-28 11:00N 48°31' W 126°22'5 9.5
2017-Sep-28 10:30N 48°31' W 126°15'5 9.5
2017-Sep-28 10:00N 48°31' W 126°08'5 9.4
2017-Sep-28 09:30N 48°31' W 126°01'5 9.7
2017-Sep-28 09:00N 48°31' W 125°54'510.2
2017-Sep-28 08:30N 48°31' W 125°46'510.3
2017-Sep-28 08:00N 48°31' W 125°38'510.2
2017-Sep-28 07:30N 48°31' W 125°31'5 9.9
2017-Sep-28 07:00N 48°31' W 125°23'5 9.9
2017-Sep-28 06:30N 48°31' W 125°16'510.2
2017-Sep-28 06:00N 48°31' W 125°08'510.3
2017-Sep-28 05:30N 48°31' W 125°00'510.2
2017-Sep-28 05:00N 48°31' W 124°52'510.1
2017-Sep-28 04:30N 48°31' W 124°45'510.7
2017-Sep-28 04:00N 48°29' W 124°37'510.4
2017-Sep-28 03:30N 48°27' W 124°30'510.4
2017-Sep-28 03:00N 48°25' W 124°23'510.7
2017-Sep-28 02:30N 48°23' W 124°15'510.7
2017-Sep-28 02:00N 48°21' W 124°08'510.0
2017-Sep-28 01:27N 48°19' W 124°00'610.1
2017-Sep-28 00:54N 48°17' W 123°52'410.8
2017-Sep-28 00:30N 48°16' W 123°46'611.2
2017-Sep-28 00:00N 48°15' W 123°37'611.4
2017-Sep-27 23:30N 48°17' W 123°29'612.3
2017-Sep-27 23:00N 48°22' W 123°25'510.7
2017-Sep-27 22:30N 48°23' W 123°17'510.9
2017-Sep-27 22:00N 48°28' W 123°13'713.1
2017-Sep-27 21:30N 48°35' W 123°14'612.7
2017-Sep-27 21:00N 48°41' W 123°15'611.7
2017-Sep-27 20:30N 48°44' W 123°08'612.3
2017-Sep-27 20:00N 48°48' W 123°00'612.3
2017-Sep-27 19:30N 48°53' W 123°05'612.4
2017-Sep-27 19:00N 48°59' W 123°09'2 4.0
2017-Sep-27 18:27N 49°01' W 123°09'0 0.0
2017-Sep-27 18:00N 49°01' W 123°09'0 0.0
2017-Sep-27 17:30N 49°01' W 123°09'0 0.0
2017-Sep-27 17:00N 49°01' W 123°09'0 0.0
2017-Sep-27 16:30N 49°01' W 123°09'0 0.0
2017-Sep-27 16:00N 49°01' W 123°09'0 0.0
2017-Sep-27 15:30N 49°01' W 123°09'0 0.0
2017-Sep-27 15:00N 49°01' W 123°09'0 0.0
2017-Sep-27 14:30N 49°01' W 123°09'0 0.0
2017-Sep-27 14:00N 49°01' W 123°09'0 0.0
2017-Sep-27 13:27N 49°01' W 123°09'0 0.0
2017-Sep-27 12:57N 49°01' W 123°09'0 0.0
2017-Sep-27 12:30N 49°01' W 123°09'0 0.0
2017-Sep-27 12:00N 49°01' W 123°09'0 0.0
2017-Sep-27 11:30N 49°01' W 123°09'0 0.0
2017-Sep-27 11:00N 49°01' W 123°09'0 0.0
2017-Sep-27 10:30N 49°01' W 123°09'0 0.0
2017-Sep-27 10:00N 49°01' W 123°09'0 0.0
2017-Sep-27 09:30N 49°01' W 123°09'0 0.0
2017-Sep-27 09:00N 49°01' W 123°09'0 0.0
2017-Sep-27 08:30N 49°01' W 123°09'0 0.0
2017-Sep-27 07:57N 49°01' W 123°09'0 0.0
2017-Sep-27 07:27N 49°01' W 123°09'0 0.0
2017-Sep-27 07:00N 49°01' W 123°09'0 0.0
2017-Sep-27 06:27N 49°01' W 123°09'0 0.0
2017-Sep-27 06:00N 49°01' W 123°09'0 0.0
2017-Sep-27 05:27N 49°01' W 123°09'0 0.0
2017-Sep-27 04:57N 49°01' W 123°09'0 0.0
2017-Sep-27 04:27N 49°01' W 123°09'0 0.0
2017-Sep-27 04:00N 49°01' W 123°09'0 0.0
2017-Sep-27 03:30N 49°01' W 123°09'0 0.0
2017-Sep-27 03:00N 49°01' W 123°09'0 0.0
2017-Sep-27 02:27N 49°01' W 123°09'0 0.0
2017-Sep-27 02:00N 49°01' W 123°09'0 0.0
2017-Sep-27 01:30N 49°01' W 123°09'0 0.0
2017-Sep-27 01:00N 49°01' W 123°09'0 0.0
2017-Sep-27 00:30N 49°01' W 123°09'0 0.0
2017-Sep-27 00:00N 49°01' W 123°09'0 0.0
2017-Sep-26 23:30N 49°01' W 123°09'0 0.0
2017-Sep-26 23:00N 49°01' W 123°09'0 0.0
2017-Sep-26 22:30N 49°01' W 123°09'0 0.0
2017-Sep-26 22:00N 49°01' W 123°09'0 0.0
2017-Sep-26 21:30N 49°01' W 123°09'0 0.0
2017-Sep-26 20:57N 49°01' W 123°09'0 0.0
2017-Sep-26 19:57N 49°01' W 123°09'0 0.0
2017-Sep-26 19:27N 49°01' W 123°09'0 0.0
2017-Sep-26 18:57N 49°01' W 123°09'0 0.0
2017-Sep-26 18:27N 49°01' W 123°09'0 0.0
2017-Sep-26 17:36N 49°01' W 123°09'0 0.0
2017-Sep-26 17:27N 49°01' W 123°09'0 0.0
2017-Sep-26 16:54N 49°01' W 123°09'0 0.0
2017-Sep-26 16:30N 49°01' W 123°09'0 0.0
2017-Sep-26 16:00N 49°01' W 123°09'0 0.0
2017-Sep-26 15:30N 49°01' W 123°09'0 0.0
2017-Sep-26 14:24N 49°01' W 123°09'0 0.0
2017-Sep-26 14:00N 49°01' W 123°09'0 0.0
2017-Sep-26 13:30N 49°01' W 123°09'0 0.0
2017-Sep-26 13:00N 49°01' W 123°09'0 0.0
2017-Sep-26 12:30N 49°01' W 123°09'0 0.0
2017-Sep-26 11:57N 49°01' W 123°09'0 0.0
2017-Sep-26 11:21N 49°01' W 123°09'0 0.0
2017-Sep-26 11:00N 49°01' W 123°09'0 0.0
2017-Sep-26 10:18N 49°01' W 123°09'0 0.0
2017-Sep-26 10:00N 49°01' W 123°09'0 0.0
2017-Sep-26 09:30N 49°01' W 123°09'0 0.0
2017-Sep-26 08:54N 49°01' W 123°09'0 0.0
2017-Sep-26 08:30N 49°01' W 123°09'0 0.0
2017-Sep-26 08:00N 49°01' W 123°09'0 0.0
2017-Sep-26 07:27N 49°01' W 123°09'0 0.0
2017-Sep-26 07:00N 49°01' W 123°09'0 0.0
2017-Sep-26 06:30N 49°01' W 123°09'0 0.0
2017-Sep-26 06:00N 49°01' W 123°09'0 1.0
2017-Sep-26 05:30N 49°00' W 123°10'3 5.9
2017-Sep-26 05:00N 49°00' W 123°14'611.6
2017-Sep-26 04:30N 49°03' W 123°22'713.5
2017-Sep-26 04:00N 49°10' W 123°23'713.6
2017-Sep-26 03:30N 49°16' W 123°20'510.6
2017-Sep-26 03:00N 49°18' W 123°13'1 1.1
2017-Sep-26 02:30N 49°18' W 123°12'0 0.0
2017-Sep-26 02:00N 49°18' W 123°12'0 0.1
2017-Sep-26 01:30N 49°18' W 123°12'0 0.0
2017-Sep-26 00:57N 49°18' W 123°12'0 0.0
2017-Sep-26 00:27N 49°18' W 123°12'0 0.0
2017-Sep-26 00:00N 49°18' W 123°12'0 0.0
2017-Sep-25 23:30N 49°18' W 123°12'0 0.0
2017-Sep-25 23:00N 49°18' W 123°12'0 0.2
2017-Sep-25 22:30N 49°18' W 123°12'0 0.2
2017-Sep-25 22:00N 49°18' W 123°12'0 0.2
2017-Sep-25 21:30N 49°18' W 123°13'0 0.1
2017-Sep-25 21:00N 49°18' W 123°13'0 0.0
2017-Sep-25 20:30N 49°18' W 123°13'0 0.0
2017-Sep-25 20:00N 49°18' W 123°13'0 0.0
2017-Sep-25 19:27N 49°18' W 123°13'0 0.1
2017-Sep-25 19:00N 49°18' W 123°13'0 0.0
2017-Sep-25 18:30N 49°18' W 123°13'0 0.1
2017-Sep-25 18:00N 49°18' W 123°13'0 0.1
2017-Sep-25 17:30N 49°18' W 123°13'0 0.0
2017-Sep-25 17:00N 49°18' W 123°13'0 0.1
2017-Sep-25 16:27N 49°18' W 123°12'0 0.0
2017-Sep-25 15:57N 49°18' W 123°12'0 0.0
2017-Sep-25 15:30N 49°18' W 123°12'0 0.1
2017-Sep-25 14:57N 49°18' W 123°13'0 0.1
2017-Sep-25 14:30N 49°18' W 123°12'0 0.1
2017-Sep-25 14:00N 49°18' W 123°12'0 0.1
2017-Sep-25 13:27N 49°18' W 123°12'0 0.0
2017-Sep-25 12:57N 49°18' W 123°12'0 0.0
2017-Sep-25 12:27N 49°18' W 123°12'0 0.1
2017-Sep-25 12:00N 49°18' W 123°12'0 0.0
2017-Sep-25 11:27N 49°18' W 123°12'0 0.1
2017-Sep-25 11:00N 49°18' W 123°12'0 0.0
2017-Sep-25 10:30N 49°18' W 123°12'0 0.0
2017-Sep-25 10:00N 49°18' W 123°12'0 0.0
2017-Sep-25 09:30N 49°18' W 123°12'0 0.0
2017-Sep-25 09:00N 49°18' W 123°12'0 0.1
2017-Sep-25 08:30N 49°18' W 123°12'0 0.1
2017-Sep-25 07:57N 49°18' W 123°12'0 0.2
2017-Sep-25 07:27N 49°18' W 123°12'0 0.2
2017-Sep-25 07:00N 49°18' W 123°12'0 0.1
2017-Sep-25 06:27N 49°18' W 123°12'0 0.1
2017-Sep-25 06:00N 49°18' W 123°12'0 0.1
2017-Sep-25 05:30N 49°18' W 123°12'0 0.0
2017-Sep-25 05:00N 49°18' W 123°12'0 0.0
2017-Sep-25 04:27N 49°18' W 123°12'0 0.1
2017-Sep-25 04:00N 49°18' W 123°12'0 0.1
2017-Sep-25 03:30N 49°18' W 123°12'0 0.0
2017-Sep-25 03:00N 49°18' W 123°12'0 0.1
2017-Sep-25 02:30N 49°18' W 123°12'0 0.1
2017-Sep-25 02:00N 49°18' W 123°12'0 0.0
2017-Sep-25 01:30N 49°18' W 123°12'0 0.0
2017-Sep-25 01:00N 49°18' W 123°12'0 0.0
2017-Sep-25 00:30N 49°18' W 123°12'0 0.0
2017-Sep-24 23:57N 49°18' W 123°12'0 0.0
2017-Sep-24 23:30N 49°18' W 123°12'0 0.0
2017-Sep-24 23:00N 49°18' W 123°12'0 0.0
2017-Sep-24 22:30N 49°18' W 123°12'0 0.0
2017-Sep-24 22:00N 49°18' W 123°12'0 0.0
2017-Sep-24 21:30N 49°18' W 123°12'0 0.0
2017-Sep-24 21:00N 49°18' W 123°12'0 0.0
2017-Sep-24 20:30N 49°18' W 123°12'0 0.0
2017-Sep-24 20:00N 49°18' W 123°12'0 0.2
2017-Sep-24 19:30N 49°18' W 123°12'0 0.3
2017-Sep-24 19:00N 49°18' W 123°12'0 0.1
2017-Sep-24 18:30N 49°18' W 123°12'0 0.1
2017-Sep-24 18:00N 49°18' W 123°13'0 0.0
2017-Sep-24 17:30N 49°18' W 123°13'0 0.0
2017-Sep-24 17:00N 49°18' W 123°13'0 0.0
2017-Sep-24 16:30N 49°18' W 123°13'0 0.1
2017-Sep-24 16:00N 49°18' W 123°12'0 0.0
2017-Sep-24 15:30N 49°18' W 123°12'0 0.1
2017-Sep-24 15:00N 49°18' W 123°12'0 0.1
2017-Sep-24 14:27N 49°18' W 123°12'0 0.1
2017-Sep-24 14:00N 49°18' W 123°12'0 0.0
2017-Sep-24 13:30N 49°18' W 123°12'0 0.0
2017-Sep-24 13:00N 49°18' W 123°12'0 0.1
2017-Sep-24 12:30N 49°18' W 123°12'0 0.0
2017-Sep-24 12:00N 49°18' W 123°12'0 0.0
2017-Sep-24 11:30N 49°18' W 123°12'0 0.0
2017-Sep-24 11:00N 49°18' W 123°12'0 0.0
2017-Sep-24 10:30N 49°18' W 123°12'0 0.0
2017-Sep-24 10:00N 49°18' W 123°12'0 0.0
2017-Sep-24 09:30N 49°18' W 123°12'0 0.1
2017-Sep-24 09:00N 49°18' W 123°12'0 0.1
2017-Sep-24 08:30N 49°18' W 123°12'0 0.0
2017-Sep-24 08:00N 49°18' W 123°12'0 0.2
2017-Sep-24 07:30N 49°18' W 123°12'0 0.3
2017-Sep-24 07:00N 49°18' W 123°13'0 0.1
2017-Sep-24 06:30N 49°18' W 123°13'0 0.0
2017-Sep-24 06:00N 49°18' W 123°13'0 0.1
2017-Sep-24 05:30N 49°18' W 123°13'0 0.0
2017-Sep-24 05:00N 49°18' W 123°13'0 0.0
2017-Sep-24 04:30N 49°18' W 123°13'0 0.0
2017-Sep-24 04:00N 49°18' W 123°13'0 0.1
2017-Sep-24 03:30N 49°18' W 123°12'0 0.1
2017-Sep-24 03:00N 49°18' W 123°12'0 0.0
2017-Sep-24 02:30N 49°18' W 123°12'0 0.1
2017-Sep-24 02:00N 49°18' W 123°12'0 0.0
2017-Sep-24 01:30N 49°18' W 123°12'0 0.1
2017-Sep-24 01:00N 49°18' W 123°12'0 0.1
2017-Sep-24 00:30N 49°18' W 123°12'0 0.1
2017-Sep-24 00:00N 49°18' W 123°12'0 0.0
2017-Sep-23 23:30N 49°18' W 123°12'0 0.0
2017-Sep-23 23:00N 49°18' W 123°12'0 0.0
2017-Sep-23 22:30N 49°18' W 123°12'0 0.0
2017-Sep-23 22:00N 49°18' W 123°12'0 0.0
2017-Sep-23 21:30N 49°18' W 123°12'0 0.0
2017-Sep-23 21:00N 49°18' W 123°12'0 0.0
2017-Sep-23 20:30N 49°18' W 123°12'0 0.0
2017-Sep-23 20:00N 49°18' W 123°12'5 0.1
2017-Sep-22 02:00N 49°18' W 123°04'0 0.0
2017-Sep-22 01:30N 49°18' W 123°04'0 0.0
2017-Sep-22 01:00N 49°18' W 123°04'0 0.0
2017-Sep-22 00:30N 49°18' W 123°04'0 0.1
2017-Sep-22 00:00N 49°18' W 123°04'0 0.0
2017-Sep-21 23:30N 49°18' W 123°04'0 0.1
2017-Sep-21 23:00N 49°18' W 123°04'0 0.2
2017-Sep-21 22:30N 49°18' W 123°04'0 0.3
2017-Sep-21 22:00N 49°18' W 123°04'0 0.1
2017-Sep-21 21:30N 49°18' W 123°04'0 0.1
2017-Sep-21 21:00N 49°18' W 123°04'0 0.1
2017-Sep-21 20:30N 49°18' W 123°04'0 0.1
2017-Sep-21 20:00N 49°18' W 123°04'0 0.1
2017-Sep-21 19:30N 49°18' W 123°04'0 0.0
2017-Sep-21 19:00N 49°18' W 123°04'0 0.1
2017-Sep-21 18:30N 49°18' W 123°04'0 0.0
2017-Sep-21 18:00N 49°18' W 123°04'0 0.0
2017-Sep-21 17:30N 49°18' W 123°04'0 0.0
2017-Sep-21 17:00N 49°18' W 123°04'0 0.1
2017-Sep-21 16:30N 49°18' W 123°04'0 0.1
2017-Sep-21 16:00N 49°18' W 123°04'0 0.1
2017-Sep-21 15:30N 49°18' W 123°04'0 0.3
2017-Sep-21 15:00N 49°18' W 123°04'0 0.1
2017-Sep-21 14:30N 49°18' W 123°04'0 0.1
2017-Sep-21 14:00N 49°18' W 123°04'0 0.0
2017-Sep-21 13:30N 49°18' W 123°04'0 0.1
2017-Sep-21 12:54N 49°18' W 123°04'0 0.0
2017-Sep-21 12:30N 49°18' W 123°04'0 0.0
2017-Sep-21 12:00N 49°18' W 123°04'0 0.0
2017-Sep-21 11:30N 49°18' W 123°04'0 0.1
2017-Sep-21 11:00N 49°18' W 123°04'0 0.1
2017-Sep-21 10:30N 49°18' W 123°04'0 0.2
2017-Sep-21 10:00N 49°18' W 123°04'0 0.0
2017-Sep-21 09:30N 49°18' W 123°04'0 0.1
2017-Sep-21 09:00N 49°18' W 123°04'0 0.1
2017-Sep-21 08:30N 49°18' W 123°04'0 0.1
2017-Sep-21 08:00N 49°18' W 123°04'0 0.1
2017-Sep-21 07:30N 49°18' W 123°04'0 0.0
2017-Sep-21 07:00N 49°18' W 123°04'0 0.0
2017-Sep-21 06:30N 49°18' W 123°04'0 0.1
2017-Sep-21 06:00N 49°18' W 123°04'0 0.0
2017-Sep-21 05:30N 49°18' W 123°04'0 0.0
2017-Sep-21 05:00N 49°18' W 123°04'0 0.0
2017-Sep-21 04:30N 49°18' W 123°04'0 0.0
2017-Sep-21 04:00N 49°18' W 123°04'0 0.0
2017-Sep-21 03:30N 49°18' W 123°04'0 0.5
2017-Sep-21 03:00N 49°18' W 123°04'0 0.1
2017-Sep-21 02:30N 49°18' W 123°04'0 0.1
2017-Sep-21 02:00N 49°18' W 123°04'0 0.1
2017-Sep-21 01:30N 49°18' W 123°04'0 0.0
2017-Sep-21 01:00N 49°18' W 123°04'0 0.0
2017-Sep-21 00:30N 49°18' W 123°04'0 0.1
2017-Sep-21 00:00N 49°18' W 123°04'0 0.0
2017-Sep-20 23:30N 49°18' W 123°04'0 0.0
2017-Sep-20 23:00N 49°18' W 123°04'0 0.1
2017-Sep-20 22:30N 49°18' W 123°04'0 0.0
2017-Sep-20 22:00N 49°18' W 123°04'0 0.0
2017-Sep-20 21:30N 49°18' W 123°04'0 0.0
2017-Sep-20 21:00N 49°18' W 123°04'0 0.0
2017-Sep-20 20:30N 49°18' W 123°04'0 0.0
2017-Sep-20 20:00N 49°18' W 123°04'0 0.3
2017-Sep-20 19:30N 49°18' W 123°04'0 0.3
2017-Sep-20 19:00N 49°18' W 123°04'0 0.1
2017-Sep-20 18:30N 49°18' W 123°04'0 0.0
2017-Sep-20 18:00N 49°18' W 123°04'0 0.2
2017-Sep-20 17:30N 49°18' W 123°04'0 0.0
2017-Sep-20 17:00N 49°18' W 123°04'0 0.1
2017-Sep-20 16:30N 49°18' W 123°04'0 0.0
2017-Sep-20 16:00N 49°18' W 123°04'0 0.1
2017-Sep-20 15:30N 49°18' W 123°04'0 0.1
2017-Sep-20 15:00N 49°18' W 123°04'0 0.2
2017-Sep-20 14:00N 49°18' W 123°04'0 0.1
2017-Sep-20 13:30N 49°18' W 123°04'0 0.0
2017-Sep-20 13:00N 49°18' W 123°04'0 0.1
2017-Sep-20 12:30N 49°18' W 123°04'0 0.1
2017-Sep-20 12:00N 49°18' W 123°04'0 0.0
2017-Sep-20 11:30N 49°18' W 123°04'0 0.1
2017-Sep-20 11:00N 49°18' W 123°04'0 0.2
2017-Sep-20 10:30N 49°18' W 123°04'0 0.1
2017-Sep-20 10:00N 49°18' W 123°04'0 0.1
2017-Sep-20 09:30N 49°18' W 123°04'0 0.0
2017-Sep-20 09:00N 49°18' W 123°04'0 0.1
2017-Sep-20 08:30N 49°18' W 123°04'0 0.0
2017-Sep-20 08:00N 49°18' W 123°04'0 0.1
2017-Sep-20 07:30N 49°18' W 123°04'0 0.1
2017-Sep-20 07:00N 49°18' W 123°04'0 0.1
2017-Sep-20 06:30N 49°18' W 123°04'0 0.0
2017-Sep-20 06:00N 49°18' W 123°04'0 0.0
2017-Sep-20 05:30N 49°18' W 123°04'0 0.0
2017-Sep-20 05:00N 49°18' W 123°04'0 0.0
2017-Sep-20 04:30N 49°18' W 123°04'0 0.2
2017-Sep-20 04:00N 49°18' W 123°04'0 0.2
2017-Sep-20 03:30N 49°18' W 123°04'0 0.2
2017-Sep-20 03:00N 49°18' W 123°04'0 0.1
2017-Sep-20 02:30N 49°18' W 123°04'0 0.0
2017-Sep-20 02:00N 49°18' W 123°04'0 0.0
2017-Sep-20 01:30N 49°18' W 123°04'0 0.1
2017-Sep-20 01:00N 49°18' W 123°04'0 0.1
2017-Sep-20 00:30N 49°18' W 123°04'0 0.0
2017-Sep-20 00:00N 49°18' W 123°04'0 0.2
2017-Sep-19 23:30N 49°18' W 123°04'0 0.0
2017-Sep-19 23:00N 49°18' W 123°04'0 0.0
2017-Sep-19 22:30N 49°18' W 123°04'0 0.0
2017-Sep-19 22:00N 49°18' W 123°04'0 0.2
2017-Sep-19 21:30N 49°18' W 123°04'0 0.3
2017-Sep-19 21:00N 49°18' W 123°04'0 0.0
2017-Sep-19 20:30N 49°18' W 123°04'0 0.0
2017-Sep-19 20:00N 49°18' W 123°04'0 0.1
2017-Sep-19 19:30N 49°18' W 123°04'0 0.1
2017-Sep-19 19:00N 49°18' W 123°04'0 0.0
2017-Sep-19 18:30N 49°18' W 123°04'0 0.0
2017-Sep-19 18:00N 49°18' W 123°04'0 0.0
2017-Sep-19 17:30N 49°18' W 123°04'0 0.0
2017-Sep-19 17:00N 49°18' W 123°04'0 0.0
2017-Sep-19 16:30N 49°18' W 123°04'0 0.0
2017-Sep-19 16:00N 49°18' W 123°04'0 0.1
2017-Sep-19 15:30N 49°18' W 123°04'0 0.1
2017-Sep-19 15:00N 49°18' W 123°04'0 0.0
2017-Sep-19 14:30N 49°18' W 123°04'0 0.0
2017-Sep-19 14:00N 49°18' W 123°04'0 0.1
2017-Sep-19 13:30N 49°18' W 123°04'0 0.1
2017-Sep-19 13:00N 49°18' W 123°04'0 0.2
2017-Sep-19 12:30N 49°18' W 123°04'0 0.1
2017-Sep-19 12:00N 49°18' W 123°04'0 0.0
2017-Sep-19 11:30N 49°18' W 123°04'0 0.0
2017-Sep-19 11:00N 49°18' W 123°04'0 0.2
2017-Sep-19 10:30N 49°18' W 123°04'0 0.1
2017-Sep-19 10:00N 49°18' W 123°04'0 0.1
2017-Sep-19 09:30N 49°18' W 123°04'0 0.1
2017-Sep-19 09:00N 49°18' W 123°04'0 0.0
2017-Sep-19 08:30N 49°18' W 123°04'0 0.0
2017-Sep-19 08:00N 49°18' W 123°04'0 0.0
2017-Sep-19 07:30N 49°18' W 123°04'0 0.0
2017-Sep-19 07:00N 49°18' W 123°04'0 0.1
2017-Sep-19 06:30N 49°18' W 123°04'0 0.0
2017-Sep-19 06:00N 49°18' W 123°04'0 0.0
2017-Sep-19 05:30N 49°18' W 123°04'0 0.0
2017-Sep-19 05:00N 49°18' W 123°04'0 0.0
2017-Sep-19 04:30N 49°18' W 123°04'0 0.1
2017-Sep-19 04:00N 49°18' W 123°04'0 0.1
2017-Sep-19 03:30N 49°18' W 123°04'0 0.0
2017-Sep-19 03:00N 49°18' W 123°04'0 0.2
2017-Sep-19 02:30N 49°18' W 123°04'0 0.4
2017-Sep-19 02:00N 49°18' W 123°04'0 0.2
2017-Sep-19 01:30N 49°18' W 123°04'0 0.2
2017-Sep-19 01:00N 49°18' W 123°04'0 0.2
2017-Sep-19 00:30N 49°18' W 123°04'0 0.2
2017-Sep-19 00:00N 49°18' W 123°04'0 0.1
2017-Sep-18 23:30N 49°18' W 123°04'0 0.0
2017-Sep-18 23:00N 49°18' W 123°04'0 0.0
2017-Sep-18 22:30N 49°18' W 123°04'0 0.0
2017-Sep-18 22:00N 49°18' W 123°04'0 0.2
2017-Sep-18 21:30N 49°18' W 123°04'0 0.1
2017-Sep-18 21:00N 49°18' W 123°04'0 0.3
2017-Sep-18 20:30N 49°18' W 123°04'0 0.1
2017-Sep-18 20:00N 49°18' W 123°04'0 0.1
2017-Sep-18 19:30N 49°18' W 123°04'0 0.0
2017-Sep-18 19:00N 49°18' W 123°04'0 0.0
2017-Sep-18 18:30N 49°18' W 123°04'0 0.0
2017-Sep-18 18:00N 49°18' W 123°04'0 0.0
2017-Sep-18 17:30N 49°18' W 123°04'0 0.1
2017-Sep-18 17:00N 49°18' W 123°04'0 0.1
2017-Sep-18 16:30N 49°18' W 123°04'0 0.1
2017-Sep-18 16:00N 49°18' W 123°04'0 0.1
2017-Sep-18 15:30N 49°18' W 123°04'0 0.1
2017-Sep-18 15:00N 49°18' W 123°04'  
Track history (hours):
 
Tides and Currents Weather Stations Pressure Air Temp Water Temp Dewpoint Dewpoint Depression Visibility Wind Speed Wind Dir Waves Ship Positions

W-star

Last reported at 2017-Sep-28 14:43 UTC. Time now 2017-Oct-20 08:54 UTC.
Position N 48°31' W 127°17'.
Warning: this ship's position is 21 days out of date.

Length 230 m; draft 14.7 m.

Type: Cargo ship. MMSI: 636014569.

Date/timePositionNaut miles runAvg speedWind from/ knotsBaromVisibWave heightAir tempDewpointWater temp
2017-Sep-28 14:43N 48°31' W 127°17'4 9.8
2017-Sep-28 14:21N 48°31' W 127°11'3 9.7
2017-Sep-28 14:00N 48°30' W 127°06'5 9.8
2017-Sep-28 13:30N 48°30' W 126°59'5 9.9
2017-Sep-28 13:00N 48°30' W 126°51'5 9.8
2017-Sep-28 12:30N 48°30' W 126°44'5 9.8
2017-Sep-28 12:00N 48°31' W 126°37'5 9.6
2017-Sep-28 11:30N 48°31' W 126°29'5 9.4
2017-Sep-28 11:00N 48°31' W 126°22'5 9.5
2017-Sep-28 10:30N 48°31' W 126°15'5 9.5
2017-Sep-28 10:00N 48°31' W 126°08'5 9.4
2017-Sep-28 09:30N 48°31' W 126°01'5 9.7
2017-Sep-28 09:00N 48°31' W 125°54'510.2
2017-Sep-28 08:30N 48°31' W 125°46'510.3
2017-Sep-28 08:00N 48°31' W 125°38'510.2
2017-Sep-28 07:30N 48°31' W 125°31'5 9.9
2017-Sep-28 07:00N 48°31' W 125°23'5 9.9
2017-Sep-28 06:30N 48°31' W 125°16'510.2
2017-Sep-28 06:00N 48°31' W 125°08'510.3
2017-Sep-28 05:30N 48°31' W 125°00'510.2
2017-Sep-28 05:00N 48°31' W 124°52'510.1
2017-Sep-28 04:30N 48°31' W 124°45'510.7
2017-Sep-28 04:00N 48°29' W 124°37'510.4
2017-Sep-28 03:30N 48°27' W 124°30'510.4
2017-Sep-28 03:00N 48°25' W 124°23'510.7
2017-Sep-28 02:30N 48°23' W 124°15'510.7
2017-Sep-28 02:00N 48°21' W 124°08'510.0
2017-Sep-28 01:27N 48°19' W 124°00'610.1
2017-Sep-28 00:54N 48°17' W 123°52'410.8
2017-Sep-28 00:30N 48°16' W 123°46'611.2
2017-Sep-28 00:00N 48°15' W 123°37'611.4
2017-Sep-27 23:30N 48°17' W 123°29'612.3
2017-Sep-27 23:00N 48°22' W 123°25'510.7
2017-Sep-27 22:30N 48°23' W 123°17'510.9
2017-Sep-27 22:00N 48°28' W 123°13'713.1
2017-Sep-27 21:30N 48°35' W 123°14'612.7
2017-Sep-27 21:00N 48°41' W 123°15'611.7
2017-Sep-27 20:30N 48°44' W 123°08'612.3
2017-Sep-27 20:00N 48°48' W 123°00'612.3
2017-Sep-27 19:30N 48°53' W 123°05'612.4
2017-Sep-27 19:00N 48°59' W 123°09'2 4.0
2017-Sep-27 18:27N 49°01' W 123°09'0 0.0
2017-Sep-27 18:00N 49°01' W 123°09'0 0.0
2017-Sep-27 17:30N 49°01' W 123°09'0 0.0
2017-Sep-27 17:00N 49°01' W 123°09'0 0.0
2017-Sep-27 16:30N 49°01' W 123°09'0 0.0
2017-Sep-27 16:00N 49°01' W 123°09'0 0.0
2017-Sep-27 15:30N 49°01' W 123°09'0 0.0
2017-Sep-27 15:00N 49°01' W 123°09'0 0.0
2017-Sep-27 14:30N 49°01' W 123°09'0 0.0
2017-Sep-27 14:00N 49°01' W 123°09'0 0.0
2017-Sep-27 13:27N 49°01' W 123°09'0 0.0
2017-Sep-27 12:57N 49°01' W 123°09'0 0.0
2017-Sep-27 12:30N 49°01' W 123°09'0 0.0
2017-Sep-27 12:00N 49°01' W 123°09'0 0.0
2017-Sep-27 11:30N 49°01' W 123°09'0 0.0
2017-Sep-27 11:00N 49°01' W 123°09'0 0.0
2017-Sep-27 10:30N 49°01' W 123°09'0 0.0
2017-Sep-27 10:00N 49°01' W 123°09'0 0.0
2017-Sep-27 09:30N 49°01' W 123°09'0 0.0
2017-Sep-27 09:00N 49°01' W 123°09'0 0.0
2017-Sep-27 08:30N 49°01' W 123°09'0 0.0
2017-Sep-27 07:57N 49°01' W 123°09'0 0.0
2017-Sep-27 07:27N 49°01' W 123°09'0 0.0
2017-Sep-27 07:00N 49°01' W 123°09'0 0.0
2017-Sep-27 06:27N 49°01' W 123°09'0 0.0
2017-Sep-27 06:00N 49°01' W 123°09'0 0.0
2017-Sep-27 05:27N 49°01' W 123°09'0 0.0
2017-Sep-27 04:57N 49°01' W 123°09'0 0.0
2017-Sep-27 04:27N 49°01' W 123°09'0 0.0
2017-Sep-27 04:00N 49°01' W 123°09'0 0.0
2017-Sep-27 03:30N 49°01' W 123°09'0 0.0
2017-Sep-27 03:00N 49°01' W 123°09'0 0.0
2017-Sep-27 02:27N 49°01' W 123°09'0 0.0
2017-Sep-27 02:00N 49°01' W 123°09'0 0.0
2017-Sep-27 01:30N 49°01' W 123°09'0 0.0
2017-Sep-27 01:00N 49°01' W 123°09'0 0.0
2017-Sep-27 00:30N 49°01' W 123°09'0 0.0
2017-Sep-27 00:00N 49°01' W 123°09'0 0.0
2017-Sep-26 23:30N 49°01' W 123°09'0 0.0
2017-Sep-26 23:00N 49°01' W 123°09'0 0.0
2017-Sep-26 22:30N 49°01' W 123°09'0 0.0
2017-Sep-26 22:00N 49°01' W 123°09'0 0.0
2017-Sep-26 21:30N 49°01' W 123°09'0 0.0
2017-Sep-26 20:57N 49°01' W 123°09'0 0.0
2017-Sep-26 19:57N 49°01' W 123°09'0 0.0
2017-Sep-26 19:27N 49°01' W 123°09'0 0.0
2017-Sep-26 18:57N 49°01' W 123°09'0 0.0
2017-Sep-26 18:27N 49°01' W 123°09'0 0.0
2017-Sep-26 17:36N 49°01' W 123°09'0 0.0
2017-Sep-26 17:27N 49°01' W 123°09'0 0.0
2017-Sep-26 16:54N 49°01' W 123°09'0 0.0
2017-Sep-26 16:30N 49°01' W 123°09'0 0.0
2017-Sep-26 16:00N 49°01' W 123°09'0 0.0
2017-Sep-26 15:30N 49°01' W 123°09'0 0.0
2017-Sep-26 14:24N 49°01' W 123°09'0 0.0
2017-Sep-26 14:00N 49°01' W 123°09'0 0.0
2017-Sep-26 13:30N 49°01' W 123°09'0 0.0
2017-Sep-26 13:00N 49°01' W 123°09'0 0.0
2017-Sep-26 12:30N 49°01' W 123°09'0 0.0
2017-Sep-26 11:57N 49°01' W 123°09'0 0.0
2017-Sep-26 11:21N 49°01' W 123°09'0 0.0
2017-Sep-26 11:00N 49°01' W 123°09'0 0.0
2017-Sep-26 10:18N 49°01' W 123°09'0 0.0
2017-Sep-26 10:00N 49°01' W 123°09'0 0.0
2017-Sep-26 09:30N 49°01' W 123°09'0 0.0
2017-Sep-26 08:54N 49°01' W 123°09'0 0.0
2017-Sep-26 08:30N 49°01' W 123°09'0 0.0
2017-Sep-26 08:00N 49°01' W 123°09'0 0.0
2017-Sep-26 07:27N 49°01' W 123°09'0 0.0
2017-Sep-26 07:00N 49°01' W 123°09'0 0.0
2017-Sep-26 06:30N 49°01' W 123°09'0 0.0
2017-Sep-26 06:00N 49°01' W 123°09'0 1.0
2017-Sep-26 05:30N 49°00' W 123°10'3 5.9
2017-Sep-26 05:00N 49°00' W 123°14'611.6
2017-Sep-26 04:30N 49°03' W 123°22'713.5
2017-Sep-26 04:00N 49°10' W 123°23'713.6
2017-Sep-26 03:30N 49°16' W 123°20'510.6
2017-Sep-26 03:00N 49°18' W 123°13'1 1.1
2017-Sep-26 02:30N 49°18' W 123°12'0 0.0
2017-Sep-26 02:00N 49°18' W 123°12'0 0.1
2017-Sep-26 01:30N 49°18' W 123°12'0 0.0
2017-Sep-26 00:57N 49°18' W 123°12'0 0.0
2017-Sep-26 00:27N 49°18' W 123°12'0 0.0
2017-Sep-26 00:00N 49°18' W 123°12'0 0.0
2017-Sep-25 23:30N 49°18' W 123°12'0 0.0
2017-Sep-25 23:00N 49°18' W 123°12'0 0.2
2017-Sep-25 22:30N 49°18' W 123°12'0 0.2
2017-Sep-25 22:00N 49°18' W 123°12'0 0.2
2017-Sep-25 21:30N 49°18' W 123°13'0 0.1
2017-Sep-25 21:00N 49°18' W 123°13'0 0.0
2017-Sep-25 20:30N 49°18' W 123°13'0 0.0
2017-Sep-25 20:00N 49°18' W 123°13'0 0.0
2017-Sep-25 19:27N 49°18' W 123°13'0 0.1
2017-Sep-25 19:00N 49°18' W 123°13'0 0.0
2017-Sep-25 18:30N 49°18' W 123°13'0 0.1
2017-Sep-25 18:00N 49°18' W 123°13'0 0.1
2017-Sep-25 17:30N 49°18' W 123°13'0 0.0
2017-Sep-25 17:00N 49°18' W 123°13'0 0.1
2017-Sep-25 16:27N 49°18' W 123°12'0 0.0
2017-Sep-25 15:57N 49°18' W 123°12'0 0.0
2017-Sep-25 15:30N 49°18' W 123°12'0 0.1
2017-Sep-25 14:57N 49°18' W 123°13'0 0.1
2017-Sep-25 14:30N 49°18' W 123°12'0 0.1
2017-Sep-25 14:00N 49°18' W 123°12'0 0.1
2017-Sep-25 13:27N 49°18' W 123°12'0 0.0
2017-Sep-25 12:57N 49°18' W 123°12'0 0.0
2017-Sep-25 12:27N 49°18' W 123°12'0 0.1
2017-Sep-25 12:00N 49°18' W 123°12'0 0.0
2017-Sep-25 11:27N 49°18' W 123°12'0 0.1
2017-Sep-25 11:00N 49°18' W 123°12'0 0.0
2017-Sep-25 10:30N 49°18' W 123°12'0 0.0
2017-Sep-25 10:00N 49°18' W 123°12'0 0.0
2017-Sep-25 09:30N 49°18' W 123°12'0 0.0
2017-Sep-25 09:00N 49°18' W 123°12'0 0.1
2017-Sep-25 08:30N 49°18' W 123°12'0 0.1
2017-Sep-25 07:57N 49°18' W 123°12'0 0.2
2017-Sep-25 07:27N 49°18' W 123°12'0 0.2
2017-Sep-25 07:00N 49°18' W 123°12'0 0.1
2017-Sep-25 06:27N 49°18' W 123°12'0 0.1
2017-Sep-25 06:00N 49°18' W 123°12'0 0.1
2017-Sep-25 05:30N 49°18' W 123°12'0 0.0
2017-Sep-25 05:00N 49°18' W 123°12'0 0.0
2017-Sep-25 04:27N 49°18' W 123°12'0 0.1
2017-Sep-25 04:00N 49°18' W 123°12'0 0.1
2017-Sep-25 03:30N 49°18' W 123°12'0 0.0
2017-Sep-25 03:00N 49°18' W 123°12'0 0.1
2017-Sep-25 02:30N 49°18' W 123°12'0 0.1
2017-Sep-25 02:00N 49°18' W 123°12'0 0.0
2017-Sep-25 01:30N 49°18' W 123°12'0 0.0
2017-Sep-25 01:00N 49°18' W 123°12'0 0.0
2017-Sep-25 00:30N 49°18' W 123°12'0 0.0
2017-Sep-24 23:57N 49°18' W 123°12'0 0.0
2017-Sep-24 23:30N 49°18' W 123°12'0 0.0
2017-Sep-24 23:00N 49°18' W 123°12'0 0.0
2017-Sep-24 22:30N 49°18' W 123°12'0 0.0
2017-Sep-24 22:00N 49°18' W 123°12'0 0.0
2017-Sep-24 21:30N 49°18' W 123°12'0 0.0
2017-Sep-24 21:00N 49°18' W 123°12'0 0.0
2017-Sep-24 20:30N 49°18' W 123°12'0 0.0
2017-Sep-24 20:00N 49°18' W 123°12'0 0.2
2017-Sep-24 19:30N 49°18' W 123°12'0 0.3
2017-Sep-24 19:00N 49°18' W 123°12'0 0.1
2017-Sep-24 18:30N 49°18' W 123°12'0 0.1
2017-Sep-24 18:00N 49°18' W 123°13'0 0.0
2017-Sep-24 17:30N 49°18' W 123°13'0 0.0
2017-Sep-24 17:00N 49°18' W 123°13'0 0.0
2017-Sep-24 16:30N 49°18' W 123°13'0 0.1
2017-Sep-24 16:00N 49°18' W 123°12'0 0.0
2017-Sep-24 15:30N 49°18' W 123°12'0 0.1
2017-Sep-24 15:00N 49°18' W 123°12'0 0.1
2017-Sep-24 14:27N 49°18' W 123°12'0 0.1
2017-Sep-24 14:00N 49°18' W 123°12'0 0.0
2017-Sep-24 13:30N 49°18' W 123°12'0 0.0
2017-Sep-24 13:00N 49°18' W 123°12'0 0.1
2017-Sep-24 12:30N 49°18' W 123°12'0 0.0
2017-Sep-24 12:00N 49°18' W 123°12'0 0.0
2017-Sep-24 11:30N 49°18' W 123°12'0 0.0
2017-Sep-24 11:00N 49°18' W 123°12'0 0.0
2017-Sep-24 10:30N 49°18' W 123°12'0 0.0
2017-Sep-24 10:00N 49°18' W 123°12'0 0.0
2017-Sep-24 09:30N 49°18' W 123°12'0 0.1
2017-Sep-24 09:00N 49°18' W 123°12'0 0.1
2017-Sep-24 08:30N 49°18' W 123°12'0 0.0
2017-Sep-24 08:00N 49°18' W 123°12'0 0.2
2017-Sep-24 07:30N 49°18' W 123°12'0 0.3
2017-Sep-24 07:00N 49°18' W 123°13'0 0.1
2017-Sep-24 06:30N 49°18' W 123°13'0 0.0
2017-Sep-24 06:00N 49°18' W 123°13'0 0.1
2017-Sep-24 05:30N 49°18' W 123°13'0 0.0
2017-Sep-24 05:00N 49°18' W 123°13'0 0.0
2017-Sep-24 04:30N 49°18' W 123°13'0 0.0
2017-Sep-24 04:00N 49°18' W 123°13'0 0.1
2017-Sep-24 03:30N 49°18' W 123°12'0 0.1
2017-Sep-24 03:00N 49°18' W 123°12'0 0.0
2017-Sep-24 02:30N 49°18' W 123°12'0 0.1
2017-Sep-24 02:00N 49°18' W 123°12'0 0.0
2017-Sep-24 01:30N 49°18' W 123°12'0 0.1
2017-Sep-24 01:00N 49°18' W 123°12'0 0.1
2017-Sep-24 00:30N 49°18' W 123°12'0 0.1
2017-Sep-24 00:00N 49°18' W 123°12'0 0.0
2017-Sep-23 23:30N 49°18' W 123°12'0 0.0
2017-Sep-23 23:00N 49°18' W 123°12'0 0.0
2017-Sep-23 22:30N 49°18' W 123°12'0 0.0
2017-Sep-23 22:00N 49°18' W 123°12'0 0.0
2017-Sep-23 21:30N 49°18' W 123°12'0 0.0
2017-Sep-23 21:00N 49°18' W 123°12'0 0.0
2017-Sep-23 20:30N 49°18' W 123°12'0 0.0
2017-Sep-23 20:00N 49°18' W 123°12'5 0.1
2017-Sep-22 02:00N 49°18' W 123°04'0 0.0
2017-Sep-22 01:30N 49°18' W 123°04'0 0.0
2017-Sep-22 01:00N 49°18' W 123°04'0 0.0
2017-Sep-22 00:30N 49°18' W 123°04'0 0.1
2017-Sep-22 00:00N 49°18' W 123°04'0 0.0
2017-Sep-21 23:30N 49°18' W 123°04'0 0.1
2017-Sep-21 23:00N 49°18' W 123°04'0 0.2
2017-Sep-21 22:30N 49°18' W 123°04'0 0.3
2017-Sep-21 22:00N 49°18' W 123°04'0 0.1
2017-Sep-21 21:30N 49°18' W 123°04'0 0.1
2017-Sep-21 21:00N 49°18' W 123°04'0 0.1
2017-Sep-21 20:30N 49°18' W 123°04'0 0.1
2017-Sep-21 20:00N 49°18' W 123°04'0 0.1
2017-Sep-21 19:30N 49°18' W 123°04'0 0.0
2017-Sep-21 19:00N 49°18' W 123°04'0 0.1
2017-Sep-21 18:30N 49°18' W 123°04'0 0.0
2017-Sep-21 18:00N 49°18' W 123°04'0 0.0
2017-Sep-21 17:30N 49°18' W 123°04'0 0.0
2017-Sep-21 17:00N 49°18' W 123°04'0 0.1
2017-Sep-21 16:30N 49°18' W 123°04'0 0.1
2017-Sep-21 16:00N 49°18' W 123°04'0 0.1
2017-Sep-21 15:30N 49°18' W 123°04'0 0.3
2017-Sep-21 15:00N 49°18' W 123°04'0 0.1
2017-Sep-21 14:30N 49°18' W 123°04'0 0.1
2017-Sep-21 14:00N 49°18' W 123°04'0 0.0
2017-Sep-21 13:30N 49°18' W 123°04'0 0.1
2017-Sep-21 12:54N 49°18' W 123°04'0 0.0
2017-Sep-21 12:30N 49°18' W 123°04'0 0.0
2017-Sep-21 12:00N 49°18' W 123°04'0 0.0
2017-Sep-21 11:30N 49°18' W 123°04'0 0.1
2017-Sep-21 11:00N 49°18' W 123°04'0 0.1
2017-Sep-21 10:30N 49°18' W 123°04'0 0.2
2017-Sep-21 10:00N 49°18' W 123°04'0 0.0
2017-Sep-21 09:30N 49°18' W 123°04'0 0.1
2017-Sep-21 09:00N 49°18' W 123°04'0 0.1
2017-Sep-21 08:30N 49°18' W 123°04'0 0.1
2017-Sep-21 08:00N 49°18' W 123°04'0 0.1
2017-Sep-21 07:30N 49°18' W 123°04'0 0.0
2017-Sep-21 07:00N 49°18' W 123°04'0 0.0
2017-Sep-21 06:30N 49°18' W 123°04'0 0.1
2017-Sep-21 06:00N 49°18' W 123°04'0 0.0
2017-Sep-21 05:30N 49°18' W 123°04'0 0.0
2017-Sep-21 05:00N 49°18' W 123°04'0 0.0
2017-Sep-21 04:30N 49°18' W 123°04'0 0.0
2017-Sep-21 04:00N 49°18' W 123°04'0 0.0
2017-Sep-21 03:30N 49°18' W 123°04'0 0.5
2017-Sep-21 03:00N 49°18' W 123°04'0 0.1
2017-Sep-21 02:30N 49°18' W 123°04'0 0.1
2017-Sep-21 02:00N 49°18' W 123°04'0 0.1
2017-Sep-21 01:30N 49°18' W 123°04'0 0.0
2017-Sep-21 01:00N 49°18' W 123°04'0 0.0
2017-Sep-21 00:30N 49°18' W 123°04'0 0.1
2017-Sep-21 00:00N 49°18' W 123°04'0 0.0
2017-Sep-20 23:30N 49°18' W 123°04'0 0.0
2017-Sep-20 23:00N 49°18' W 123°04'0 0.1
2017-Sep-20 22:30N 49°18' W 123°04'0 0.0
2017-Sep-20 22:00N 49°18' W 123°04'0 0.0
2017-Sep-20 21:30N 49°18' W 123°04'0 0.0
2017-Sep-20 21:00N 49°18' W 123°04'0 0.0
2017-Sep-20 20:30N 49°18' W 123°04'0 0.0
2017-Sep-20 20:00N 49°18' W 123°04'0 0.3
2017-Sep-20 19:30N 49°18' W 123°04'0 0.3
2017-Sep-20 19:00N 49°18' W 123°04'0 0.1
2017-Sep-20 18:30N 49°18' W 123°04'0 0.0
2017-Sep-20 18:00N 49°18' W 123°04'0 0.2
2017-Sep-20 17:30N 49°18' W 123°04'0 0.0
2017-Sep-20 17:00N 49°18' W 123°04'0 0.1
2017-Sep-20 16:30N 49°18' W 123°04'0 0.0
2017-Sep-20 16:00N 49°18' W 123°04'0 0.1
2017-Sep-20 15:30N 49°18' W 123°04'0 0.1
2017-Sep-20 15:00N 49°18' W 123°04'0 0.2
2017-Sep-20 14:00N 49°18' W 123°04'0 0.1
2017-Sep-20 13:30N 49°18' W 123°04'0 0.0
2017-Sep-20 13:00N 49°18' W 123°04'0 0.1
2017-Sep-20 12:30N 49°18' W 123°04'0 0.1
2017-Sep-20 12:00N 49°18' W 123°04'0 0.0
2017-Sep-20 11:30N 49°18' W 123°04'0 0.1
2017-Sep-20 11:00N 49°18' W 123°04'0 0.2
2017-Sep-20 10:30N 49°18' W 123°04'0 0.1
2017-Sep-20 10:00N 49°18' W 123°04'0 0.1
2017-Sep-20 09:30N 49°18' W 123°04'0 0.0
2017-Sep-20 09:00N 49°18' W 123°04'0 0.1
2017-Sep-20 08:30N 49°18' W 123°04'0 0.0
2017-Sep-20 08:00N 49°18' W 123°04'0 0.1
2017-Sep-20 07:30N 49°18' W 123°04'0 0.1
2017-Sep-20 07:00N 49°18' W 123°04'0 0.1
2017-Sep-20 06:30N 49°18' W 123°04'0 0.0
2017-Sep-20 06:00N 49°18' W 123°04'0 0.0
2017-Sep-20 05:30N 49°18' W 123°04'0 0.0
2017-Sep-20 05:00N 49°18' W 123°04'0 0.0
2017-Sep-20 04:30N 49°18' W 123°04'0 0.2
2017-Sep-20 04:00N 49°18' W 123°04'0 0.2
2017-Sep-20 03:30N 49°18' W 123°04'0 0.2
2017-Sep-20 03:00N 49°18' W 123°04'0 0.1
2017-Sep-20 02:30N 49°18' W 123°04'0 0.0
2017-Sep-20 02:00N 49°18' W 123°04'0 0.0
2017-Sep-20 01:30N 49°18' W 123°04'0 0.1
2017-Sep-20 01:00N 49°18' W 123°04'0 0.1
2017-Sep-20 00:30N 49°18' W 123°04'0 0.0
2017-Sep-20 00:00N 49°18' W 123°04'0 0.2
2017-Sep-19 23:30N 49°18' W 123°04'0 0.0
2017-Sep-19 23:00N 49°18' W 123°04'0 0.0
2017-Sep-19 22:30N 49°18' W 123°04'0 0.0
2017-Sep-19 22:00N 49°18' W 123°04'0 0.2
2017-Sep-19 21:30N 49°18' W 123°04'0 0.3
2017-Sep-19 21:00N 49°18' W 123°04'0 0.0
2017-Sep-19 20:30N 49°18' W 123°04'0 0.0
2017-Sep-19 20:00N 49°18' W 123°04'0 0.1
2017-Sep-19 19:30N 49°18' W 123°04'0 0.1
2017-Sep-19 19:00N 49°18' W 123°04'0 0.0
2017-Sep-19 18:30N 49°18' W 123°04'0 0.0
2017-Sep-19 18:00N 49°18' W 123°04'0 0.0
2017-Sep-19 17:30N 49°18' W 123°04'0 0.0
2017-Sep-19 17:00N 49°18' W 123°04'0 0.0
2017-Sep-19 16:30N 49°18' W 123°04'0 0.0
2017-Sep-19 16:00N 49°18' W 123°04'0 0.1
2017-Sep-19 15:30N 49°18' W 123°04'0 0.1
2017-Sep-19 15:00N 49°18' W 123°04'0 0.0
2017-Sep-19 14:30N 49°18' W 123°04'0 0.0
2017-Sep-19 14:00N 49°18' W 123°04'0 0.1
2017-Sep-19 13:30N 49°18' W 123°04'0 0.1
2017-Sep-19 13:00N 49°18' W 123°04'0 0.2
2017-Sep-19 12:30N 49°18' W 123°04'0 0.1
2017-Sep-19 12:00N 49°18' W 123°04'0 0.0
2017-Sep-19 11:30N 49°18' W 123°04'0 0.0
2017-Sep-19 11:00N 49°18' W 123°04'0 0.2
2017-Sep-19 10:30N 49°18' W 123°04'0 0.1
2017-Sep-19 10:00N 49°18' W 123°04'0 0.1
2017-Sep-19 09:30N 49°18' W 123°04'0 0.1
2017-Sep-19 09:00N 49°18' W 123°04'0 0.0
2017-Sep-19 08:30N 49°18' W 123°04'0 0.0
2017-Sep-19 08:00N 49°18' W 123°04'0 0.0
2017-Sep-19 07:30N 49°18' W 123°04'0 0.0
2017-Sep-19 07:00N 49°18' W 123°04'0 0.1
2017-Sep-19 06:30N 49°18' W 123°04'0 0.0
2017-Sep-19 06:00N 49°18' W 123°04'0 0.0
2017-Sep-19 05:30N 49°18' W 123°04'0 0.0
2017-Sep-19 05:00N 49°18' W 123°04'0 0.0
2017-Sep-19 04:30N 49°18' W 123°04'0 0.1
2017-Sep-19 04:00N 49°18' W 123°04'0 0.1
2017-Sep-19 03:30N 49°18' W 123°04'0 0.0
2017-Sep-19 03:00N 49°18' W 123°04'0 0.2
2017-Sep-19 02:30N 49°18' W 123°04'0 0.4
2017-Sep-19 02:00N 49°18' W 123°04'0 0.2
2017-Sep-19 01:30N 49°18' W 123°04'0 0.2
2017-Sep-19 01:00N 49°18' W 123°04'0 0.2
2017-Sep-19 00:30N 49°18' W 123°04'0 0.2
2017-Sep-19 00:00N 49°18' W 123°04'0 0.1
2017-Sep-18 23:30N 49°18' W 123°04'0 0.0
2017-Sep-18 23:00N 49°18' W 123°04'0 0.0
2017-Sep-18 22:30N 49°18' W 123°04'0 0.0
2017-Sep-18 22:00N 49°18' W 123°04'0 0.2
2017-Sep-18 21:30N 49°18' W 123°04'0 0.1
2017-Sep-18 21:00N 49°18' W 123°04'0 0.3
2017-Sep-18 20:30N 49°18' W 123°04'0 0.1
2017-Sep-18 20:00N 49°18' W 123°04'0 0.1
2017-Sep-18 19:30N 49°18' W 123°04'0 0.0
2017-Sep-18 19:00N 49°18' W 123°04'0 0.0
2017-Sep-18 18:30N 49°18' W 123°04'0 0.0
2017-Sep-18 18:00N 49°18' W 123°04'0 0.0
2017-Sep-18 17:30N 49°18' W 123°04'0 0.1
2017-Sep-18 17:00N 49°18' W 123°04'0 0.1
2017-Sep-18 16:30N 49°18' W 123°04'0 0.1
2017-Sep-18 16:00N 49°18' W 123°04'0 0.1
2017-Sep-18 15:30N 49°18' W 123°04'0 0.1
2017-Sep-18 15:00N 49°18' W 123°04'  

Dump ship's entire track history